Time;durP1;ratioP1;P1;durP2;ratioP2;P2;SDS_P1;SDS_P2;PMS_P1;PMS_P2;Temp;Humidity;BMP_temperature;BMP_pressure;BME280_temperature;BME280_humidity;BME280_pressure;Samples;Min_cycle;Max_cycle;Signal;HPM_P1;HPM_P2
2021/05/08 00:01:39;;;;;;;9.18;5.47;;;11.30;49.00;;;;;;5055316;28;20385;-84
2021/05/08 00:04:05;;;;;;;8.43;5.45;;;11.30;49.00;;;;;;5073545;28;20035;-83
2021/05/08 00:06:33;;;;;;;12.35;5.88;;;11.30;49.10;;;;;;5073093;28;20024;-85
2021/05/08 00:09:00;;;;;;;13.70;6.10;;;11.30;49.10;;;;;;5073866;28;20016;-82
2021/05/08 00:11:26;;;;;;;10.37;5.33;;;11.30;49.20;;;;;;5076394;28;20425;-83
2021/05/08 00:13:52;;;;;;;10.50;5.50;;;11.30;49.30;;;;;;5076551;28;20100;-85
2021/05/08 00:16:17;;;;;;;15.05;5.88;;;11.30;49.40;;;;;;5073372;28;20067;-84
2021/05/08 00:18:43;;;;;;;14.30;6.32;;;11.30;49.50;;;;;;5075463;28;20063;-85
2021/05/08 00:21:10;;;;;;;11.20;5.43;;;11.40;49.50;;;;;;5073792;28;20090;-86
2021/05/08 00:23:36;;;;;;;13.05;5.55;;;11.40;49.60;;;;;;5074061;28;20020;-85
2021/05/08 00:26:03;;;;;;;13.75;6.32;;;11.40;49.70;;;;;;5073254;28;20178;-86
2021/05/08 00:28:29;;;;;;;7.35;5.45;;;11.40;49.70;;;;;;5073358;28;20032;-85
2021/05/08 00:30:54;;;;;;;9.80;5.68;;;11.40;49.80;;;;;;5073489;28;20152;-85
2021/05/08 00:33:20;;;;;;;10.63;5.28;;;11.50;49.90;;;;;;5073060;28;20020;-86
2021/05/08 00:35:46;;;;;;;13.30;6.00;;;11.50;50.00;;;;;;5072855;28;20375;-84
2021/05/08 00:38:12;;;;;;;8.93;5.30;;;11.50;50.10;;;;;;5072812;28;20070;-84
2021/05/08 00:40:38;;;;;;;9.80;4.78;;;11.50;50.20;;;;;;5054431;28;20025;-85
2021/05/08 00:43:05;;;;;;;9.02;5.75;;;11.50;50.30;;;;;;5056563;28;20531;-83
2021/05/08 00:45:31;;;;;;;12.20;5.95;;;11.50;50.60;;;;;;5078071;28;20426;-84
2021/05/08 00:48:05;;;;;;;9.45;5.05;;;11.50;50.80;;;;;;5089731;28;20029;-88
2021/05/08 00:50:33;;;;;;;7.50;4.57;;;11.50;50.90;;;;;;5082685;28;20077;-85
2021/05/08 00:53:00;;;;;;;7.78;4.20;;;11.50;51.30;;;;;;5082544;28;20146;-85
2021/05/08 00:55:26;;;;;;;6.78;4.05;;;11.60;51.40;;;;;;5073340;28;20167;-85
2021/05/08 00:57:51;;;;;;;5.65;4.05;;;11.50;51.70;;;;;;5075443;28;20080;-89
2021/05/08 01:00:18;;;;;;;5.55;4.18;;;11.60;52.80;;;;;;5075245;28;20016;-88
2021/05/08 01:02:44;;;;;;;8.27;4.33;;;11.50;54.70;;;;;;5074547;28;20028;-88
2021/05/08 01:05:12;;;;;;;7.63;4.00;;;11.40;56.20;;;;;;5059234;28;20017;-86
2021/05/08 01:07:39;;;;;;;5.88;3.78;;;11.30;57.70;;;;;;5085560;28;20023;-85
2021/05/08 01:10:07;;;;;;;5.15;4.18;;;11.20;58.40;;;;;;5073897;28;20032;-87
2021/05/08 01:12:33;;;;;;;8.00;3.20;;;11.20;58.60;;;;;;5073685;28;20032;-86
2021/05/08 01:14:59;;;;;;;6.10;3.83;;;11.20;59.10;;;;;;5073544;28;20482;-87
2021/05/08 01:17:26;;;;;;;6.15;3.88;;;11.20;59.30;;;;;;5074141;28;20513;-86
2021/05/08 01:19:52;;;;;;;6.20;4.20;;;11.20;59.10;;;;;;5073710;28;20073;-86
2021/05/08 01:22:18;;;;;;;9.88;3.85;;;11.20;59.40;;;;;;5058850;28;20127;-86
2021/05/08 01:24:44;;;;;;;6.05;4.03;;;11.20;59.70;;;;;;5077577;28;20595;-86
2021/05/08 01:27:10;;;;;;;5.18;3.80;;;11.20;59.80;;;;;;5059651;28;20113;-86
2021/05/08 01:29:36;;;;;;;6.65;4.28;;;11.30;59.60;;;;;;5077222;28;20032;-87
2021/05/08 01:32:01;;;;;;;6.18;4.03;;;11.30;59.50;;;;;;5078673;28;20031;-88
2021/05/08 01:34:27;;;;;;;5.85;4.22;;;11.40;59.10;;;;;;5082114;28;20054;-86
2021/05/08 01:36:53;;;;;;;6.63;4.03;;;11.40;59.50;;;;;;5071408;28;20037;-85
2021/05/08 01:39:19;;;;;;;4.93;4.05;;;11.40;59.40;;;;;;5081742;28;20419;-86
2021/05/08 01:41:45;;;;;;;7.18;4.63;;;11.30;59.60;;;;;;5083127;28;20027;-88
2021/05/08 01:44:11;;;;;;;8.60;4.63;;;11.30;60.00;;;;;;5078820;28;20050;-84
2021/05/08 01:46:37;;;;;;;7.72;4.30;;;11.40;60.10;;;;;;5077781;28;20095;-84
2021/05/08 01:49:06;;;;;;;6.13;3.35;;;11.40;61.10;;;;;;5077269;28;20021;-84
2021/05/08 01:51:32;;;;;;;8.25;4.78;;;11.40;61.40;;;;;;5077503;28;20075;-83
2021/05/08 01:53:58;;;;;;;7.10;4.00;;;11.40;62.30;;;;;;5080144;28;20370;-87
2021/05/08 01:56:24;;;;;;;8.23;5.22;;;11.30;63.00;;;;;;5087893;28;20078;-87
2021/05/08 01:58:50;;;;;;;8.00;3.88;;;11.10;63.90;;;;;;5079337;28;20017;-84
2021/05/08 02:01:16;;;;;;;8.02;4.53;;;11.00;64.60;;;;;;5075354;28;20136;-85
2021/05/08 02:03:42;;;;;;;6.38;4.30;;;10.90;65.80;;;;;;5077646;28;20470;-85
2021/05/08 02:06:08;;;;;;;6.00;4.45;;;10.90;66.70;;;;;;5075765;28;20024;-86
2021/05/08 02:08:34;;;;;;;6.20;3.92;;;10.90;67.30;;;;;;5077100;28;20486;-83
2021/05/08 02:11:00;;;;;;;5.72;3.80;;;10.80;67.50;;;;;;5056999;28;20020;-83
2021/05/08 02:13:26;;;;;;;4.63;4.13;;;10.70;68.00;;;;;;5074985;28;20047;-84
2021/05/08 02:15:52;;;;;;;7.15;4.13;;;10.60;69.00;;;;;;5074561;28;20028;-85
2021/05/08 02:18:17;;;;;;;5.95;3.63;;;10.40;70.20;;;;;;5075424;28;20021;-84
2021/05/08 02:20:44;;;;;;;8.52;4.53;;;10.30;71.60;;;;;;5075453;28;20446;-84
2021/05/08 02:23:13;;;;;;;5.47;3.92;;;10.30;72.20;;;;;;5057619;28;20464;-84
2021/05/08 02:25:39;;;;;;;5.47;4.00;;;10.20;73.40;;;;;;5075511;28;20441;-83
2021/05/08 02:28:06;;;;;;;6.35;3.83;;;10.10;74.60;;;;;;5074429;28;20033;-83
2021/05/08 02:30:34;;;;;;;11.65;5.13;;;10.00;75.60;;;;;;5074321;28;20021;-83
2021/05/08 02:33:01;;;;;;;7.90;4.18;;;9.90;76.80;;;;;;5055669;28;20028;-82
2021/05/08 02:35:28;;;;;;;6.67;4.63;;;9.90;77.60;;;;;;5074097;28;20630;-83
2021/05/08 02:37:56;;;;;;;7.15;4.85;;;9.80;78.80;;;;;;5074820;28;20029;-83
2021/05/08 02:40:31;;;;;;;5.88;4.90;;;9.80;79.10;;;;;;5074122;28;20112;-83
2021/05/08 02:42:57;;;;;;;6.20;5.50;;;9.80;79.80;;;;;;5075398;28;20031;-83
2021/05/08 02:45:23;;;;;;;7.18;4.95;;;9.70;80.40;;;;;;5076721;28;20020;-82
2021/05/08 02:47:50;;;;;;;7.45;4.95;;;9.70;81.20;;;;;;5078325;28;20024;-82
2021/05/08 02:50:18;;;;;;;8.45;5.22;;;9.70;81.50;;;;;;5076359;28;20029;-83
2021/05/08 02:52:44;;;;;;;8.52;6.05;;;9.60;82.10;;;;;;5074271;28;20016;-83
2021/05/08 02:55:11;;;;;;;9.48;6.53;;;9.60;83.30;;;;;;5073399;28;20097;-84
2021/05/08 02:57:37;;;;;;;11.25;6.78;;;9.50;83.90;;;;;;5073765;28;20032;-84
2021/05/08 03:00:07;;;;;;;9.23;7.77;;;9.40;84.90;;;;;;5073945;28;20505;-86
2021/05/08 03:02:33;;;;;;;9.95;7.68;;;9.50;85.40;;;;;;5057118;28;20025;-86
2021/05/08 03:04:59;;;;;;;15.20;7.55;;;9.40;85.60;;;;;;5076000;28;20524;-84
2021/05/08 03:07:25;;;;;;;8.75;7.28;;;9.30;86.10;;;;;;5087961;28;20078;-83
2021/05/08 03:09:50;;;;;;;7.95;6.13;;;9.30;86.70;;;;;;5086653;28;20057;-86
2021/05/08 03:12:16;;;;;;;8.75;7.05;;;9.20;86.90;;;;;;5066585;28;20013;-87
2021/05/08 03:14:42;;;;;;;11.02;7.90;;;9.20;87.50;;;;;;5075294;28;20027;-86
2021/05/08 03:17:08;;;;;;;9.95;6.90;;;9.10;88.50;;;;;;5074520;28;20076;-88
2021/05/08 03:19:34;;;;;;;9.50;6.75;;;9.00;88.80;;;;;;5073198;28;20513;-88
2021/05/08 03:22:00;;;;;;;9.50;7.53;;;9.00;89.20;;;;;;5075268;28;20017;-88
2021/05/08 03:24:26;;;;;;;9.45;6.82;;;8.90;90.00;;;;;;5074681;28;20016;-88
2021/05/08 03:26:51;;;;;;;9.60;7.22;;;8.90;90.30;;;;;;5074540;28;20485;-87
2021/05/08 03:29:17;;;;;;;9.65;6.95;;;8.80;90.30;;;;;;5075288;28;20039;-86
2021/05/08 03:31:43;;;;;;;14.50;7.65;;;8.80;90.40;;;;;;5057366;28;20054;-86
2021/05/08 03:34:09;;;;;;;15.15;9.50;;;8.90;90.70;;;;;;5075237;28;20417;-87
2021/05/08 03:36:35;;;;;;;16.42;7.38;;;9.00;91.10;;;;;;5074749;28;20036;-87
2021/05/08 03:39:01;;;;;;;10.13;7.45;;;9.00;91.00;;;;;;5076605;28;20031;-86
2021/05/08 03:41:27;;;;;;;13.77;8.68;;;9.00;91.10;;;;;;5075054;28;20052;-86
2021/05/08 03:43:53;;;;;;;13.85;9.27;;;9.10;91.30;;;;;;5081126;28;20016;-85
2021/05/08 03:46:19;;;;;;;10.07;8.52;;;9.20;91.40;;;;;;5082447;28;20380;-86
2021/05/08 03:48:44;;;;;;;11.02;9.63;;;9.30;91.20;;;;;;5072381;28;20020;-87
2021/05/08 03:51:10;;;;;;;16.38;9.95;;;9.30;91.30;;;;;;5073778;28;20434;-85
2021/05/08 03:53:36;;;;;;;11.15;8.70;;;9.40;91.40;;;;;;5055741;28;20428;-87
2021/05/08 03:56:02;;;;;;;14.30;9.27;;;9.40;91.30;;;;;;5073049;28;20505;-86
2021/05/08 03:58:30;;;;;;;9.43;8.48;;;9.30;91.30;;;;;;5073419;28;20024;-83
2021/05/08 04:00:57;;;;;;;12.73;8.38;;;9.40;91.40;;;;;;5074574;28;20134;-85
2021/05/08 04:03:23;;;;;;;9.32;8.27;;;9.40;91.60;;;;;;5056088;28;20032;-85
2021/05/08 04:05:50;;;;;;;9.60;7.68;;;9.40;91.70;;;;;;5070929;28;20028;-86
2021/05/08 04:08:16;;;;;;;9.85;7.88;;;9.40;91.60;;;;;;5056031;28;20111;-86
2021/05/08 04:10:45;;;;;;;12.23;7.90;;;9.40;91.60;;;;;;5076189;28;20067;-86
2021/05/08 04:13:12;;;;;;;11.00;8.77;;;9.30;91.80;;;;;;5085916;28;20029;-84
2021/05/08 04:15:38;;;;;;;13.07;9.17;;;9.30;92.00;;;;;;5056330;28;20054;-84
2021/05/08 04:18:04;;;;;;;12.60;10.27;;;9.40;92.10;;;;;;5073609;28;20048;-85
2021/05/08 04:20:30;;;;;;;15.20;8.43;;;9.40;92.30;;;;;;5073088;28;20020;-84
2021/05/08 04:22:55;;;;;;;10.55;7.88;;;9.40;92.30;;;;;;5075438;28;20020;-84
2021/05/08 04:25:21;;;;;;;12.30;9.43;;;9.40;92.20;;;;;;5074094;28;20020;-83
2021/05/08 04:27:47;;;;;;;12.65;9.50;;;9.40;92.50;;;;;;5068944;28;20024;-84
2021/05/08 04:30:14;;;;;;;19.40;10.00;;;9.40;92.70;;;;;;5073135;28;20100;-84
2021/05/08 04:32:39;;;;;;;13.23;11.65;;;9.40;92.80;;;;;;5074399;28;20157;-84
2021/05/08 04:35:05;;;;;;;14.15;11.27;;;9.40;92.90;;;;;;5074603;28;20053;-83
2021/05/08 04:37:31;;;;;;;14.90;11.13;;;9.40;93.10;;;;;;5072887;28;20032;-84
2021/05/08 04:39:57;;;;;;;13.50;10.35;;;9.40;93.20;;;;;;5055228;28;20369;-86
2021/05/08 04:42:23;;;;;;;11.90;9.68;;;9.40;93.20;;;;;;5074472;28;20029;-84
2021/05/08 04:44:49;;;;;;;12.68;9.43;;;9.40;93.20;;;;;;5085593;28;20031;-83
2021/05/08 04:47:16;;;;;;;14.15;9.10;;;9.40;93.40;;;;;;5059694;28;20059;-83
2021/05/08 04:49:41;;;;;;;14.43;8.73;;;9.30;93.50;;;;;;5081132;28;20104;-82
2021/05/08 04:52:07;;;;;;;9.70;8.13;;;9.30;93.60;;;;;;5076416;28;20051;-85
2021/05/08 04:54:33;;;;;;;11.35;8.65;;;9.20;93.80;;;;;;5073835;28;20604;-85
2021/05/08 04:56:59;;;;;;;11.45;8.68;;;9.30;93.80;;;;;;5076438;28;20040;-84
2021/05/08 04:59:25;;;;;;;11.55;8.95;;;9.30;93.80;;;;;;5077017;28;20079;-85
2021/05/08 05:01:50;;;;;;;11.27;9.02;;;9.20;93.90;;;;;;5058572;28;20469;-85
2021/05/08 05:04:16;;;;;;;10.23;9.07;;;9.20;94.10;;;;;;5076684;28;20024;-86
2021/05/08 05:06:42;;;;;;;11.88;8.60;;;9.20;94.20;;;;;;5077171;28;20103;-83
2021/05/08 05:09:08;;;;;;;11.98;9.30;;;9.10;94.40;;;;;;5084369;28;20021;-83
2021/05/08 05:11:34;;;;;;;12.00;9.50;;;9.20;94.60;;;;;;5082633;28;20490;-86
2021/05/08 05:13:59;;;;;;;9.38;7.78;;;9.10;94.60;;;;;;5076767;28;20025;-85
2021/05/08 05:16:26;;;;;;;11.35;8.75;;;9.10;94.40;;;;;;5057561;28;20387;-83
2021/05/08 05:18:52;;;;;;;13.70;9.52;;;9.00;94.70;;;;;;5076015;28;20024;-83
2021/05/08 05:21:17;;;;;;;15.63;10.65;;;8.90;94.90;;;;;;5075349;28;20028;-84
2021/05/08 05:23:43;;;;;;;14.77;10.40;;;8.90;95.10;;;;;;5075878;28;20050;-83
2021/05/08 05:26:09;;;;;;;12.48;9.68;;;9.00;95.00;;;;;;5057617;28;20509;-83
2021/05/08 05:28:35;;;;;;;10.95;9.23;;;9.00;94.90;;;;;;5075446;28;20021;-84
2021/05/08 05:31:00;;;;;;;14.43;9.77;;;9.00;94.80;;;;;;5075780;28;20099;-84
2021/05/08 05:33:26;;;;;;;13.10;10.52;;;9.00;94.80;;;;;;5076598;28;20107;-83
2021/05/08 05:35:55;;;;;;;12.00;10.38;;;8.90;94.70;;;;;;5075343;28;20024;-83
2021/05/08 05:38:25;;;;;;;15.77;12.25;;;8.80;95.00;;;;;;5074149;28;20477;-85
2021/05/08 05:40:55;;;;;;;15.27;10.20;;;8.80;95.20;;;;;;5057883;28;20017;-83
2021/05/08 05:43:21;;;;;;;11.07;9.93;;;8.70;95.20;;;;;;5075732;28;20082;-87
2021/05/08 05:45:47;;;;;;;14.45;10.88;;;8.60;95.20;;;;;;5075725;28;20374;-83
2021/05/08 05:48:13;;;;;;;13.93;10.85;;;8.60;95.30;;;;;;5076394;28;20406;-83
2021/05/08 05:50:42;;;;;;;15.70;10.93;;;8.60;95.40;;;;;;5080058;28;20052;-84
2021/05/08 05:53:08;;;;;;;14.13;11.82;;;8.70;95.50;;;;;;5077299;28;20481;-84
2021/05/08 05:55:34;;;;;;;15.82;11.90;;;8.80;95.50;;;;;;5057965;28;20028;-84
2021/05/08 05:58:00;;;;;;;14.35;11.85;;;8.80;95.40;;;;;;5076039;28;20078;-85
2021/05/08 06:00:26;;;;;;;16.45;11.57;;;8.90;95.40;;;;;;5057492;28;20130;-85
2021/05/08 06:02:52;;;;;;;16.45;10.07;;;8.90;95.20;;;;;;5075909;28;20095;-86
2021/05/08 06:05:21;;;;;;;16.13;11.25;;;8.80;95.10;;;;;;5059918;28;20025;-85
2021/05/08 06:07:47;;;;;;;17.75;10.50;;;8.80;95.40;;;;;;5073246;28;20020;-85
2021/05/08 06:10:15;;;;;;;17.05;12.45;;;8.80;95.00;;;;;;5075593;28;20097;-84
2021/05/08 06:12:41;;;;;;;17.50;11.45;;;8.80;95.10;;;;;;5075825;28;20413;-84
2021/05/08 06:15:19;;;;;;;19.13;12.40;;;8.80;95.10;;;;;;5076595;28;20024;-85
2021/05/08 06:17:47;;;;;;;18.42;12.30;;;8.80;95.20;;;;;;5075450;28;20062;-86
2021/05/08 06:20:13;;;;;;;17.60;11.70;;;8.80;95.30;;;;;;5078112;28;20044;-87
2021/05/08 06:22:42;;;;;;;16.88;13.43;;;8.80;95.40;;;;;;5078809;28;20027;-85
2021/05/08 06:25:14;;;;;;;17.52;12.57;;;8.70;95.40;;;;;;5081236;28;20047;-86
2021/05/08 06:27:41;;;;;;;15.40;9.77;;;8.80;95.50;;;;;;5078433;28;20036;-86
2021/05/08 06:30:08;;;;;;;18.67;10.68;;;8.70;95.30;;;;;;5073897;28;20033;-88
2021/05/08 06:32:34;;;;;;;14.40;11.17;;;8.60;95.80;;;;;;5090785;28;20039;-87
2021/05/08 06:35:00;;;;;;;13.15;10.88;;;8.50;95.90;;;;;;5063369;28;20269;-86
2021/05/08 06:37:26;;;;;;;12.63;10.55;;;8.40;96.20;;;;;;5077330;28;20025;-88
2021/05/08 06:39:54;;;;;;;13.80;10.98;;;8.40;96.30;;;;;;5078072;28;20020;-88
2021/05/08 06:42:20;;;;;;;14.52;9.98;;;8.40;96.70;;;;;;5078106;28;20039;-86
2021/05/08 06:44:46;;;;;;;13.20;9.93;;;8.30;96.70;;;;;;5059978;28;20033;-87
2021/05/08 06:47:17;;;;;;;12.48;10.30;;;8.30;96.90;;;;;;5059021;28;20063;-85
2021/05/08 06:49:43;;;;;;;13.82;10.85;;;8.40;97.00;;;;;;5059624;28;20024;-87
2021/05/08 06:52:09;;;;;;;14.30;11.02;;;8.40;97.30;;;;;;5083486;28;20051;-83
2021/05/08 06:54:35;;;;;;;17.42;11.38;;;8.40;97.30;;;;;;5087169;28;20107;-84
2021/05/08 06:57:01;;;;;;;14.93;10.73;;;8.50;97.50;;;;;;5061323;28;20074;-85
2021/05/08 06:59:28;;;;;;;15.52;10.20;;;8.40;97.20;;;;;;5088681;28;20017;-85
2021/05/08 07:01:53;;;;;;;13.85;10.02;;;8.30;97.50;;;;;;5062972;28;20031;-85
2021/05/08 07:04:19;;;;;;;11.82;10.05;;;8.30;97.70;;;;;;5076129;28;20020;-86
2021/05/08 07:06:45;;;;;;;14.35;10.23;;;8.30;98.10;;;;;;5075557;28;20071;-84
2021/05/08 07:09:11;;;;;;;12.23;8.20;;;8.50;98.30;;;;;;5060849;28;20078;-84
2021/05/08 07:11:37;;;;;;;17.90;12.13;;;8.50;98.30;;;;;;5088860;28;20048;-86
2021/05/08 07:14:03;;;;;;;15.77;11.45;;;8.40;98.10;;;;;;5083063;28;20016;-86
2021/05/08 07:16:29;;;;;;;11.93;8.38;;;8.50;98.50;;;;;;5077703;28;20052;-84
2021/05/08 07:18:58;;;;;;;12.98;10.68;;;8.60;98.20;;;;;;5076276;28;20100;-87
2021/05/08 07:21:27;;;;;;;15.77;10.90;;;8.60;98.60;;;;;;5075968;28;20028;-85
2021/05/08 07:23:56;;;;;;;13.88;10.50;;;8.70;98.60;;;;;;5054330;28;20048;-85
2021/05/08 07:26:24;;;;;;;15.70;12.50;;;8.70;98.40;;;;;;5051647;28;20408;-87
2021/05/08 07:28:50;;;;;;;15.75;10.48;;;8.70;98.50;;;;;;5054885;28;20055;-89
2021/05/08 07:31:16;;;;;;;12.73;10.65;;;8.70;98.50;;;;;;5054009;28;20045;-86
2021/05/08 07:33:42;;;;;;;15.38;11.02;;;8.60;98.50;;;;;;5054981;28;20033;-92
2021/05/08 07:36:10;;;;;;;14.35;10.55;;;8.60;98.70;;;;;;5056256;28;20460;-87
2021/05/08 07:38:36;;;;;;;11.52;10.32;;;8.60;98.80;;;;;;5038927;28;20032;-87
2021/05/08 07:41:02;;;;;;;14.68;11.45;;;8.60;99.00;;;;;;5055419;28;20029;-89
2021/05/08 07:43:27;;;;;;;15.68;10.75;;;8.70;99.30;;;;;;5057588;28;20029;-90
2021/05/08 07:45:54;;;;;;;10.50;9.38;;;8.80;99.20;;;;;;5053656;28;20653;-86
2021/05/08 07:48:20;;;;;;;17.65;11.90;;;8.80;99.00;;;;;;5051693;28;20060;-85
2021/05/08 07:50:45;;;;;;;12.48;10.75;;;8.90;99.40;;;;;;5035283;28;20433;-88
2021/05/08 07:53:11;;;;;;;13.38;11.27;;;8.90;99.10;;;;;;5050036;28;20030;-81
2021/05/08 07:55:37;;;;;;;18.10;10.50;;;8.90;99.10;;;;;;5060160;28;20447;-84
2021/05/08 07:58:05;;;;;;;11.07;8.00;;;8.90;99.20;;;;;;5055722;28;20021;-84
2021/05/08 08:00:31;;;;;;;15.10;10.20;;;8.90;99.00;;;;;;5074200;28;20031;-88
2021/05/08 08:02:57;;;;;;;11.93;8.35;;;8.80;99.30;;;;;;5077871;28;20473;-88
2021/05/08 08:05:24;;;;;;;10.05;7.68;;;8.80;99.30;;;;;;5076552;28;20032;-88
2021/05/08 08:08:06;;;;;;;11.93;9.57;;;8.80;99.50;;;;;;5082240;28;20070;-96
2021/05/08 08:10:42;;;;;;;11.68;8.80;;;8.90;99.80;;;;;;5079955;28;20033;-93
2021/05/08 08:13:08;;;;;;;11.10;9.13;;;8.90;99.70;;;;;;5087415;28;20029;-93
2021/05/08 08:15:34;;;;;;;10.98;9.73;;;8.90;99.90;;;;;;5087146;28;20055;-93
2021/05/08 08:18:00;;;;;;;14.80;9.45;;;9.10;99.90;;;;;;5070498;28;20125;-93
2021/05/08 08:20:26;;;;;;;13.02;10.18;;;9.00;99.80;;;;;;5070616;28;20031;-92
2021/05/08 08:22:52;;;;;;;14.23;9.82;;;9.00;99.80;;;;;;5069838;28;20052;-92
2021/05/08 08:25:18;;;;;;;12.70;11.40;;;9.00;99.90;;;;;;5087852;28;20016;-95
2021/05/08 08:27:46;;;;;;;14.07;11.60;;;9.10;99.90;;;;;;5090761;28;20033;-91
2021/05/08 08:30:13;;;;;;;14.48;11.48;;;9.20;99.90;;;;;;5072085;28;20025;-90
2021/05/08 08:32:41;;;;;;;12.25;10.82;;;9.30;99.90;;;;;;5093709;28;20047;-93
2021/05/08 08:35:11;;;;;;;12.88;11.48;;;9.30;99.80;;;;;;5055717;28;20037;-91
2021/05/08 08:37:39;;;;;;;19.00;11.98;;;9.20;99.80;;;;;;5068252;28;20058;-90
2021/05/08 08:40:06;;;;;;;7.20;5.90;;;9.20;99.90;;;;;;5059015;28;20052;-91
2021/05/08 08:42:36;;;;;;;13.47;9.87;;;9.10;99.90;;;;;;5090512;28;20025;-91
2021/05/08 08:45:29;;;;;;;11.57;10.32;;;9.10;99.90;;;;;;5087752;28;20056;-91
2021/05/08 08:47:55;;;;;;;14.77;12.60;;;9.10;99.90;;;;;;5053658;28;20139;-91
2021/05/08 08:50:21;;;;;;;17.02;13.60;;;9.20;99.90;;;;;;5046121;28;20449;-91
2021/05/08 08:52:47;;;;;;;14.48;12.95;;;9.30;99.90;;;;;;5051337;28;20022;-89
2021/05/08 08:55:13;;;;;;;17.08;13.82;;;9.40;99.90;;;;;;5015130;28;20030;-90
2021/05/08 08:57:42;;;;;;;16.45;14.73;;;9.40;99.90;;;;;;5052440;28;20025;-88
2021/05/08 09:00:15;;;;;;;17.65;15.00;;;9.40;99.90;;;;;;5038296;28;20038;-90
2021/05/08 09:02:49;;;;;;;13.75;12.30;;;9.50;99.90;;;;;;5037764;28;20017;-85
2021/05/08 09:05:25;;;;;;;14.07;12.65;;;9.50;99.90;;;;;;5032779;28;20076;-87
2021/05/08 09:08:12;;;;;;;13.38;11.68;;;9.50;99.90;;;;;;5021612;28;20483;-91
2021/05/08 09:10:40;;;;;;;18.08;14.25;;;9.40;99.90;;;;;;5037943;28;20498;-86
2021/05/08 09:13:17;;;;;;;11.20;10.02;;;9.40;99.90;;;;;;5039468;28;20116;-91
2021/05/08 09:15:45;;;;;;;21.03;12.80;;;9.40;99.90;;;;;;5040391;28;20049;-93
2021/05/08 09:18:39;;;;;;;14.48;13.07;;;9.30;99.90;;;;;;5020358;28;20693;-91
2021/05/08 09:21:26;;;;;;;13.40;9.90;;;9.50;99.90;;;;;;5038974;28;20022;-88
2021/05/08 09:23:59;;;;;;;13.00;9.80;;;9.50;99.90;;;;;;5039162;28;20145;-87
2021/05/08 09:26:42;;;;;;;11.13;8.57;;;9.40;99.90;;;;;;5059138;28;20032;-85
2021/05/08 09:29:19;;;;;;;12.38;10.98;;;9.40;99.90;;;;;;5064441;28;20052;-85
2021/05/08 09:31:52;;;;;;;12.43;10.10;;;9.40;99.90;;;;;;5093560;28;20080;-93
2021/05/08 09:34:22;;;;;;;9.52;7.90;;;9.50;99.90;;;;;;5095884;28;20303;-93
2021/05/08 09:36:52;;;;;;;8.18;6.28;;;9.50;99.90;;;;;;5089264;28;20164;-90
2021/05/08 09:39:31;;;;;;;9.55;7.63;;;9.50;99.90;;;;;;5086744;28;20028;-90
2021/05/08 09:41:58;;;;;;;12.68;8.68;;;9.40;99.90;;;;;;5083335;28;20025;-90
2021/05/08 09:44:24;;;;;;;7.75;6.95;;;9.50;99.90;;;;;;5089760;28;20016;-90
2021/05/08 09:47:02;;;;;;;9.85;8.85;;;9.50;99.90;;;;;;5078949;28;20060;-94
2021/05/08 09:49:30;;;;;;;11.98;9.18;;;9.50;99.90;;;;;;5091592;28;20032;-94
2021/05/08 09:52:02;;;;;;;10.73;6.90;;;9.60;99.90;;;;;;5090490;28;20021;-94
2021/05/08 09:55:05;;;;;;;8.68;7.78;;;9.60;99.90;;;;;;5096740;28;20024;-89
2021/05/08 09:57:36;;;;;;;8.93;7.75;;;9.50;99.90;;;;;;5077681;28;20009;-88
2021/05/08 10:00:05;;;;;;;8.85;7.80;;;9.60;99.90;;;;;;5059243;28;20028;-85
2021/05/08 10:02:33;;;;;;;9.27;8.10;;;9.60;99.90;;;;;;5083186;28;20028;-94
2021/05/08 10:05:13;;;;;;;9.77;8.40;;;9.60;99.90;;;;;;5079171;28;20111;-92
2021/05/08 10:07:51;;;;;;;7.95;6.63;;;9.60;99.90;;;;;;5063780;28;20029;-91
2021/05/08 10:13:51;;;;;;;8.20;7.40;;;9.60;99.90;;;;;;5068513;28;20040;-91
2021/05/08 10:17:06;;;;;;;9.57;8.68;;;9.50;99.90;;;;;;5064345;28;20030;-95
2021/05/08 10:20:03;;;;;;;7.30;6.45;;;9.60;99.90;;;;;;5054216;28;20065;-93
2021/05/08 10:23:01;;;;;;;7.68;6.75;;;9.60;99.90;;;;;;5035138;28;20037;-93
2021/05/08 10:25:28;;;;;;;8.55;7.30;;;9.60;99.90;;;;;;5035951;28;20036;-92
2021/05/08 10:27:54;;;;;;;10.55;9.05;;;9.60;99.90;;;;;;5039761;28;20461;-92
2021/05/08 10:30:51;;;;;;;10.07;8.57;;;9.60;99.90;;;;;;5062143;28;20098;-91
2021/05/08 10:33:26;;;;;;;8.20;7.40;;;9.60;99.90;;;;;;5063233;28;20112;-91
2021/05/08 10:36:00;;;;;;;10.30;9.13;;;9.60;99.90;;;;;;5036129;28;20040;-92
2021/05/08 10:38:38;;;;;;;10.48;8.73;;;9.70;99.90;;;;;;5048629;28;20028;-89
2021/05/08 10:41:10;;;;;;;8.98;8.13;;;9.80;99.90;;;;;;5058515;28;20036;-86
2021/05/08 10:43:56;;;;;;;8.65;7.82;;;9.80;99.90;;;;;;5037207;28;20025;-90
2021/05/08 10:46:24;;;;;;;7.68;6.90;;;9.70;99.90;;;;;;5045457;28;20406;-89
2021/05/08 10:49:12;;;;;;;;;;;9.60;99.90;;;;;;5042555;28;20363;-89
2021/05/08 10:51:56;;;;;;;8.75;7.80;;;9.60;99.90;;;;;;5061226;28;19905;-89
2021/05/08 10:54:39;;;;;;;9.90;9.00;;;9.60;99.90;;;;;;5028470;28;20024;-87
2021/05/08 10:57:32;;;;;;;8.18;7.47;;;9.60;99.90;;;;;;5055119;28;20009;-92
2021/05/08 11:00:09;;;;;;;9.48;8.02;;;9.70;99.90;;;;;;5044078;28;20029;-90
2021/05/08 11:02:44;;;;;;;;;;;9.70;99.90;;;;;;5057050;28;20082;-89
2021/05/08 11:05:25;;;;;;;8.50;7.70;;;9.60;99.90;;;;;;5041595;28;19915;-90
2021/05/08 11:07:53;;;;;;;10.25;8.65;;;9.60;99.90;;;;;;5070118;28;20035;-89
2021/05/08 11:10:34;;;;;;;12.45;9.32;;;9.60;99.90;;;;;;5068126;28;20036;-84
2021/05/08 11:13:10;;;;;;;10.40;9.35;;;9.60;99.90;;;;;;5071394;28;20021;-92
2021/05/08 11:15:51;;;;;;;11.13;9.00;;;9.60;99.90;;;;;;5048195;28;20017;-92
2021/05/08 11:18:42;;;;;;;11.07;9.98;;;9.60;99.90;;;;;;5058578;28;20052;-93
2021/05/08 11:21:11;;;;;;;13.85;10.73;;;9.60;99.90;;;;;;5065524;28;20481;-95
2021/05/08 11:24:04;;;;;;;11.20;9.13;;;9.70;99.90;;;;;;5064335;28;20020;-93
2021/05/08 11:26:31;;;;;;;11.30;8.50;;;9.70;99.90;;;;;;5093897;28;20036;-92
2021/05/08 11:29:09;;;;;;;11.75;9.27;;;9.70;99.90;;;;;;5067274;28;20078;-91
2021/05/08 11:31:48;;;;;;;13.07;10.80;;;9.70;99.90;;;;;;5059206;28;20028;-90
2021/05/08 11:34:18;;;;;;;10.35;8.95;;;9.70;99.90;;;;;;5059780;28;20021;-91
2021/05/08 11:36:48;;;;;;;10.05;9.02;;;9.70;99.90;;;;;;5089344;28;20028;-92
2021/05/08 11:39:16;;;;;;;10.93;9.63;;;9.70;99.90;;;;;;5060417;28;20040;-91
2021/05/08 11:41:44;;;;;;;12.00;9.75;;;9.70;99.90;;;;;;5060361;28;20067;-94
2021/05/08 11:44:18;;;;;;;;;;;9.70;99.90;;;;;;5064004;28;20048;-93
2021/05/08 11:46:53;;;;;;;13.38;9.65;;;9.70;99.90;;;;;;5061380;28;20369;-93
2021/05/08 11:49:30;;;;;;;12.13;10.82;;;9.80;99.90;;;;;;5079554;28;20024;-84
2021/05/08 11:51:57;;;;;;;11.75;10.50;;;9.70;99.90;;;;;;5073126;28;20048;-83
2021/05/08 11:54:23;;;;;;;11.18;9.82;;;9.80;99.90;;;;;;5075304;28;20482;-87
2021/05/08 11:56:49;;;;;;;13.57;10.50;;;9.80;99.90;;;;;;5074738;28;20032;-87
2021/05/08 11:59:15;;;;;;;11.75;10.50;;;9.80;99.90;;;;;;5078147;28;20020;-85
2021/05/08 12:01:41;;;;;;;10.45;9.48;;;9.90;99.90;;;;;;5056514;28;20024;-89
2021/05/08 12:04:07;;;;;;;10.98;9.90;;;9.90;99.90;;;;;;5075773;28;20036;-85
2021/05/08 12:06:36;;;;;;;11.38;10.13;;;9.80;99.90;;;;;;5076726;28;20036;-94
2021/05/08 12:09:10;;;;;;;10.07;9.07;;;9.80;99.90;;;;;;5061699;28;20032;-87
2021/05/08 12:11:38;;;;;;;13.77;10.77;;;9.70;99.90;;;;;;5064581;28;20047;-93
2021/05/08 12:14:11;;;;;;;;;;;9.80;99.90;;;;;;5060126;28;20036;-93
2021/05/08 12:16:40;;;;;;;11.95;10.73;;;9.80;99.90;;;;;;5067481;28;19919;-92
2021/05/08 12:19:06;;;;;;;13.77;12.23;;;9.80;99.90;;;;;;5064307;28;20063;-87
2021/05/08 12:21:32;;;;;;;12.82;11.60;;;9.80;99.90;;;;;;5057754;28;20017;-90
2021/05/08 12:23:58;;;;;;;15.80;13.18;;;9.80;99.90;;;;;;5058034;28;20030;-87
2021/05/08 12:26:24;;;;;;;14.73;13.15;;;9.90;99.90;;;;;;5074762;28;20119;-89
2021/05/08 12:28:50;;;;;;;12.82;11.07;;;10.10;99.90;;;;;;5058508;28;20009;-86
2021/05/08 12:31:31;;;;;;;14.60;12.13;;;10.10;99.90;;;;;;5078061;28;20059;-91
2021/05/08 12:34:06;;;;;;;18.30;14.35;;;10.10;99.90;;;;;;5081580;28;20029;-92
2021/05/08 12:36:34;;;;;;;15.95;14.23;;;9.90;99.90;;;;;;5067533;28;20051;-92
2021/05/08 12:39:19;;;;;;;18.02;15.55;;;10.00;99.90;;;;;;5073632;28;20024;-88
2021/05/08 12:41:55;;;;;;;15.98;13.40;;;10.00;99.90;;;;;;5042818;28;20024;-85
2021/05/08 12:44:38;;;;;;;18.33;15.93;;;10.00;99.90;;;;;;5062370;28;20031;-85
2021/05/08 12:50:06;;;;;;;20.10;16.33;;;9.90;99.90;;;;;;5071409;28;20411;-91
2021/05/08 12:52:43;;;;;;;21.23;17.42;;;9.80;99.90;;;;;;5051853;28;20017;-91
2021/05/08 12:55:23;;;;;;;20.52;18.27;;;9.80;99.90;;;;;;5303651;22;20080;-93
2021/05/08 12:57:49;;;;;;;22.35;19.98;;;9.80;99.90;;;;;;5031393;28;20018;-91
2021/05/08 13:00:18;;;;;;;20.42;16.65;;;9.90;99.90;;;;;;5021665;28;20064;-91
2021/05/08 13:02:46;;;;;;;20.42;17.25;;;10.00;99.90;;;;;;5009165;28;20063;-93